sensor_id;sensor_type;location;lat;lon;timestamp;P1;durP1;ratioP1;P2;durP2;ratioP2
15307;SDS011;7755;52.208;6.964;2022-10-16T00:02:14;5.00;;;3.70;;
15307;SDS011;7755;52.208;6.964;2022-10-16T00:06:16;4.40;;;3.63;;
15307;SDS011;7755;52.208;6.964;2022-10-16T00:10:19;7.40;;;3.30;;
15307;SDS011;7755;52.208;6.964;2022-10-16T00:14:23;5.60;;;3.47;;
15307;SDS011;7755;52.208;6.964;2022-10-16T00:18:25;5.17;;;2.93;;
15307;SDS011;7755;52.208;6.964;2022-10-16T00:22:28;3.10;;;2.90;;
15307;SDS011;7755;52.208;6.964;2022-10-16T00:26:32;5.13;;;3.03;;
15307;SDS011;7755;52.208;6.964;2022-10-16T00:30:38;2.77;;;2.53;;
15307;SDS011;7755;52.208;6.964;2022-10-16T00:34:40;2.97;;;2.77;;
15307;SDS011;7755;52.208;6.964;2022-10-16T00:38:42;4.00;;;3.37;;
15307;SDS011;7755;52.208;6.964;2022-10-16T00:42:45;4.13;;;3.00;;
15307;SDS011;7755;52.208;6.964;2022-10-16T00:46:48;4.27;;;3.27;;
15307;SDS011;7755;52.208;6.964;2022-10-16T00:50:52;5.67;;;3.80;;
15307;SDS011;7755;52.208;6.964;2022-10-16T00:54:54;4.97;;;3.90;;
15307;SDS011;7755;52.208;6.964;2022-10-16T00:58:57;4.40;;;3.60;;
15307;SDS011;7755;52.208;6.964;2022-10-16T01:07:29;4.90;;;3.97;;
15307;SDS011;7755;52.208;6.964;2022-10-16T01:11:38;4.43;;;4.03;;
15307;SDS011;7755;52.208;6.964;2022-10-16T01:15:49;6.13;;;4.83;;
15307;SDS011;7755;52.208;6.964;2022-10-16T01:20:04;6.03;;;4.60;;
15307;SDS011;7755;52.208;6.964;2022-10-16T01:24:14;5.80;;;5.20;;
15307;SDS011;7755;52.208;6.964;2022-10-16T01:28:27;5.67;;;5.20;;
15307;SDS011;7755;52.208;6.964;2022-10-16T01:32:36;7.60;;;5.83;;
15307;SDS011;7755;52.208;6.964;2022-10-16T01:36:42;5.93;;;5.30;;
15307;SDS011;7755;52.208;6.964;2022-10-16T01:40:50;6.70;;;6.10;;
15307;SDS011;7755;52.208;6.964;2022-10-16T01:44:59;8.23;;;6.50;;
15307;SDS011;7755;52.208;6.964;2022-10-16T01:49:03;6.77;;;5.90;;
15307;SDS011;7755;52.208;6.964;2022-10-16T01:53:08;9.43;;;7.77;;
15307;SDS011;7755;52.208;6.964;2022-10-16T01:57:13;9.50;;;7.90;;
15307;SDS011;7755;52.208;6.964;2022-10-16T02:01:21;9.87;;;7.33;;
15307;SDS011;7755;52.208;6.964;2022-10-16T02:05:26;9.27;;;8.37;;
15307;SDS011;7755;52.208;6.964;2022-10-16T02:09:33;8.63;;;7.73;;
15307;SDS011;7755;52.208;6.964;2022-10-16T02:13:37;9.43;;;8.43;;
15307;SDS011;7755;52.208;6.964;2022-10-16T02:17:46;10.00;;;9.00;;
15307;SDS011;7755;52.208;6.964;2022-10-16T02:21:49;10.60;;;9.60;;
15307;SDS011;7755;52.208;6.964;2022-10-16T02:25:56;10.30;;;9.23;;
15307;SDS011;7755;52.208;6.964;2022-10-16T02:30:02;11.43;;;9.67;;
15307;SDS011;7755;52.208;6.964;2022-10-16T02:34:10;10.30;;;9.17;;
15307;SDS011;7755;52.208;6.964;2022-10-16T02:38:14;10.70;;;9.37;;
15307;SDS011;7755;52.208;6.964;2022-10-16T02:42:17;8.97;;;8.10;;
15307;SDS011;7755;52.208;6.964;2022-10-16T02:46:19;9.50;;;8.50;;
15307;SDS011;7755;52.208;6.964;2022-10-16T02:50:24;8.23;;;7.20;;
15307;SDS011;7755;52.208;6.964;2022-10-16T02:54:25;8.70;;;7.47;;
15307;SDS011;7755;52.208;6.964;2022-10-16T02:58:27;8.67;;;7.67;;
15307;SDS011;7755;52.208;6.964;2022-10-16T03:02:29;7.00;;;6.40;;
15307;SDS011;7755;52.208;6.964;2022-10-16T03:06:33;6.20;;;5.70;;
15307;SDS011;7755;52.208;6.964;2022-10-16T03:10:36;6.33;;;5.73;;
15307;SDS011;7755;52.208;6.964;2022-10-16T03:14:38;6.33;;;5.40;;
15307;SDS011;7755;52.208;6.964;2022-10-16T03:18:40;5.13;;;4.60;;
15307;SDS011;7755;52.208;6.964;2022-10-16T03:22:43;5.20;;;4.70;;
15307;SDS011;7755;52.208;6.964;2022-10-16T03:26:45;4.57;;;4.17;;
15307;SDS011;7755;52.208;6.964;2022-10-16T03:30:47;4.93;;;4.53;;
15307;SDS011;7755;52.208;6.964;2022-10-16T03:34:49;5.33;;;4.43;;
15307;SDS011;7755;52.208;6.964;2022-10-16T03:38:52;5.00;;;4.40;;
15307;SDS011;7755;52.208;6.964;2022-10-16T03:42:54;5.00;;;4.10;;
15307;SDS011;7755;52.208;6.964;2022-10-16T03:46:57;4.27;;;3.93;;
15307;SDS011;7755;52.208;6.964;2022-10-16T03:50:59;5.67;;;4.20;;
15307;SDS011;7755;52.208;6.964;2022-10-16T03:55:02;4.00;;;3.70;;
15307;SDS011;7755;52.208;6.964;2022-10-16T03:59:05;4.43;;;3.90;;
15307;SDS011;7755;52.208;6.964;2022-10-16T04:03:07;4.10;;;3.80;;
15307;SDS011;7755;52.208;6.964;2022-10-16T04:07:09;4.50;;;4.10;;
15307;SDS011;7755;52.208;6.964;2022-10-16T04:11:12;4.00;;;3.70;;
15307;SDS011;7755;52.208;6.964;2022-10-16T04:15:14;3.67;;;3.47;;
15307;SDS011;7755;52.208;6.964;2022-10-16T04:19:16;4.57;;;4.27;;
15307;SDS011;7755;52.208;6.964;2022-10-16T04:23:18;4.27;;;3.90;;
15307;SDS011;7755;52.208;6.964;2022-10-16T04:27:21;4.40;;;3.70;;
15307;SDS011;7755;52.208;6.964;2022-10-16T04:31:23;4.87;;;4.07;;
15307;SDS011;7755;52.208;6.964;2022-10-16T04:35:25;3.90;;;3.70;;
15307;SDS011;7755;52.208;6.964;2022-10-16T04:39:27;4.63;;;4.20;;
15307;SDS011;7755;52.208;6.964;2022-10-16T04:43:30;4.97;;;4.43;;
15307;SDS011;7755;52.208;6.964;2022-10-16T04:47:32;4.37;;;4.07;;
15307;SDS011;7755;52.208;6.964;2022-10-16T04:51:34;5.47;;;4.23;;
15307;SDS011;7755;52.208;6.964;2022-10-16T04:55:36;6.83;;;4.40;;
15307;SDS011;7755;52.208;6.964;2022-10-16T04:59:40;5.07;;;4.63;;
15307;SDS011;7755;52.208;6.964;2022-10-16T05:03:42;5.37;;;4.87;;
15307;SDS011;7755;52.208;6.964;2022-10-16T05:07:44;5.43;;;4.60;;
15307;SDS011;7755;52.208;6.964;2022-10-16T05:11:46;5.30;;;4.60;;
15307;SDS011;7755;52.208;6.964;2022-10-16T05:15:49;5.03;;;4.60;;
15307;SDS011;7755;52.208;6.964;2022-10-16T05:19:51;5.47;;;4.90;;
15307;SDS011;7755;52.208;6.964;2022-10-16T05:23:54;6.17;;;4.57;;
15307;SDS011;7755;52.208;6.964;2022-10-16T05:27:56;5.00;;;4.60;;
15307;SDS011;7755;52.208;6.964;2022-10-16T05:31:59;4.83;;;4.40;;
15307;SDS011;7755;52.208;6.964;2022-10-16T05:36:02;4.17;;;3.77;;
15307;SDS011;7755;52.208;6.964;2022-10-16T05:40:05;4.77;;;4.33;;
15307;SDS011;7755;52.208;6.964;2022-10-16T05:44:07;4.63;;;4.10;;
15307;SDS011;7755;52.208;6.964;2022-10-16T05:48:10;4.20;;;3.90;;
15307;SDS011;7755;52.208;6.964;2022-10-16T05:52:12;4.97;;;4.47;;
15307;SDS011;7755;52.208;6.964;2022-10-16T05:56:14;4.10;;;3.80;;
15307;SDS011;7755;52.208;6.964;2022-10-16T06:00:17;4.70;;;3.90;;
15307;SDS011;7755;52.208;6.964;2022-10-16T06:04:20;4.70;;;3.60;;
15307;SDS011;7755;52.208;6.964;2022-10-16T06:08:22;5.50;;;3.90;;
15307;SDS011;7755;52.208;6.964;2022-10-16T06:12:25;3.70;;;3.40;;
15307;SDS011;7755;52.208;6.964;2022-10-16T06:16:28;3.87;;;3.57;;
15307;SDS011;7755;52.208;6.964;2022-10-16T06:20:32;5.53;;;3.80;;
15307;SDS011;7755;52.208;6.964;2022-10-16T06:24:34;4.37;;;3.97;;
15307;SDS011;7755;52.208;6.964;2022-10-16T06:28:36;3.60;;;3.40;;
15307;SDS011;7755;52.208;6.964;2022-10-16T06:32:38;3.73;;;3.43;;
15307;SDS011;7755;52.208;6.964;2022-10-16T06:36:41;3.47;;;3.17;;
15307;SDS011;7755;52.208;6.964;2022-10-16T06:40:43;3.90;;;3.53;;
15307;SDS011;7755;52.208;6.964;2022-10-16T06:44:45;6.53;;;3.40;;
15307;SDS011;7755;52.208;6.964;2022-10-16T06:48:47;3.83;;;3.53;;
15307;SDS011;7755;52.208;6.964;2022-10-16T06:52:50;4.50;;;3.40;;
15307;SDS011;7755;52.208;6.964;2022-10-16T06:56:52;3.90;;;3.60;;
15307;SDS011;7755;52.208;6.964;2022-10-16T07:00:55;3.93;;;3.63;;
15307;SDS011;7755;52.208;6.964;2022-10-16T07:04:58;4.23;;;3.70;;
15307;SDS011;7755;52.208;6.964;2022-10-16T07:09:02;3.97;;;3.67;;
15307;SDS011;7755;52.208;6.964;2022-10-16T07:13:06;4.13;;;3.73;;
15307;SDS011;7755;52.208;6.964;2022-10-16T07:17:08;3.50;;;3.20;;
15307;SDS011;7755;52.208;6.964;2022-10-16T07:21:10;3.80;;;3.53;;
15307;SDS011;7755;52.208;6.964;2022-10-16T07:25:16;4.47;;;3.40;;
15307;SDS011;7755;52.208;6.964;2022-10-16T07:29:18;3.60;;;3.30;;
15307;SDS011;7755;52.208;6.964;2022-10-16T07:33:22;5.47;;;3.50;;
15307;SDS011;7755;52.208;6.964;2022-10-16T07:37:24;3.40;;;3.10;;
15307;SDS011;7755;52.208;6.964;2022-10-16T07:41:27;3.80;;;3.30;;
15307;SDS011;7755;52.208;6.964;2022-10-16T07:45:29;3.47;;;3.17;;
15307;SDS011;7755;52.208;6.964;2022-10-16T07:49:31;4.77;;;3.27;;
15307;SDS011;7755;52.208;6.964;2022-10-16T07:53:33;4.07;;;3.27;;
15307;SDS011;7755;52.208;6.964;2022-10-16T07:57:36;3.67;;;3.10;;
15307;SDS011;7755;52.208;6.964;2022-10-16T08:01:38;4.07;;;3.17;;
15307;SDS011;7755;52.208;6.964;2022-10-16T08:05:42;3.60;;;3.30;;
15307;SDS011;7755;52.208;6.964;2022-10-16T08:09:43;3.30;;;3.00;;
15307;SDS011;7755;52.208;6.964;2022-10-16T08:13:47;5.13;;;3.07;;
15307;SDS011;7755;52.208;6.964;2022-10-16T08:17:56;3.43;;;3.13;;
15307;SDS011;7755;52.208;6.964;2022-10-16T08:21:59;3.40;;;2.97;;
15307;SDS011;7755;52.208;6.964;2022-10-16T08:26:03;4.07;;;3.00;;
15307;SDS011;7755;52.208;6.964;2022-10-16T08:30:08;3.67;;;3.03;;
15307;SDS011;7755;52.208;6.964;2022-10-16T08:34:11;3.97;;;3.00;;
15307;SDS011;7755;52.208;6.964;2022-10-16T08:38:13;3.33;;;3.00;;
15307;SDS011;7755;52.208;6.964;2022-10-16T08:42:19;3.70;;;3.37;;
15307;SDS011;7755;52.208;6.964;2022-10-16T08:46:36;3.40;;;3.10;;
15307;SDS011;7755;52.208;6.964;2022-10-16T08:50:47;3.80;;;2.83;;
15307;SDS011;7755;52.208;6.964;2022-10-16T08:54:52;3.00;;;2.80;;
15307;SDS011;7755;52.208;6.964;2022-10-16T08:58:57;3.40;;;3.10;;
15307;SDS011;7755;52.208;6.964;2022-10-16T09:03:04;4.60;;;3.67;;
15307;SDS011;7755;52.208;6.964;2022-10-16T09:07:16;5.17;;;3.70;;
15307;SDS011;7755;52.208;6.964;2022-10-16T09:11:25;4.20;;;3.60;;
15307;SDS011;7755;52.208;6.964;2022-10-16T09:15:39;3.90;;;2.90;;
15307;SDS011;7755;52.208;6.964;2022-10-16T09:19:48;3.50;;;3.20;;
15307;SDS011;7755;52.208;6.964;2022-10-16T09:23:57;3.77;;;3.30;;
15307;SDS011;7755;52.208;6.964;2022-10-16T09:28:00;3.73;;;3.13;;
15307;SDS011;7755;52.208;6.964;2022-10-16T09:32:07;4.13;;;3.30;;
15307;SDS011;7755;52.208;6.964;2022-10-16T09:36:14;5.47;;;3.33;;
15307;SDS011;7755;52.208;6.964;2022-10-16T09:40:23;4.80;;;3.43;;
15307;SDS011;7755;52.208;6.964;2022-10-16T09:44:28;5.03;;;4.07;;
15307;SDS011;7755;52.208;6.964;2022-10-16T09:48:34;4.00;;;3.60;;
15307;SDS011;7755;52.208;6.964;2022-10-16T09:52:41;4.63;;;4.23;;
15307;SDS011;7755;52.208;6.964;2022-10-16T09:56:43;6.83;;;3.67;;
15307;SDS011;7755;52.208;6.964;2022-10-16T10:00:49;4.20;;;3.80;;
15307;SDS011;7755;52.208;6.964;2022-10-16T10:04:53;5.17;;;4.10;;
15307;SDS011;7755;52.208;6.964;2022-10-16T10:08:59;5.30;;;4.80;;
15307;SDS011;7755;52.208;6.964;2022-10-16T10:13:03;6.43;;;4.60;;
15307;SDS011;7755;52.208;6.964;2022-10-16T10:17:13;5.43;;;4.80;;
15307;SDS011;7755;52.208;6.964;2022-10-16T10:21:17;6.60;;;5.80;;
15307;SDS011;7755;52.208;6.964;2022-10-16T10:25:26;9.23;;;6.50;;
15307;SDS011;7755;52.208;6.964;2022-10-16T10:29:44;8.47;;;5.80;;
15307;SDS011;7755;52.208;6.964;2022-10-16T10:33:53;10.77;;;8.10;;
15307;SDS011;7755;52.208;6.964;2022-10-16T10:38:02;12.60;;;8.50;;
15307;SDS011;7755;52.208;6.964;2022-10-16T10:42:20;7.60;;;6.43;;
15307;SDS011;7755;52.208;6.964;2022-10-16T10:46:28;9.87;;;6.57;;
15307;SDS011;7755;52.208;6.964;2022-10-16T10:50:37;7.73;;;6.57;;
15307;SDS011;7755;52.208;6.964;2022-10-16T10:54:45;7.17;;;6.03;;
15307;SDS011;7755;52.208;6.964;2022-10-16T10:58:59;8.57;;;6.20;;
15307;SDS011;7755;52.208;6.964;2022-10-16T11:03:22;8.93;;;5.40;;
15307;SDS011;7755;52.208;6.964;2022-10-16T11:07:45;11.57;;;4.93;;
15307;SDS011;7755;52.208;6.964;2022-10-16T11:11:52;6.57;;;4.33;;
15307;SDS011;7755;52.208;6.964;2022-10-16T11:16:00;4.60;;;3.90;;
15307;SDS011;7755;52.208;6.964;2022-10-16T11:20:05;5.47;;;3.60;;
15307;SDS011;7755;52.208;6.964;2022-10-16T11:24:16;3.50;;;3.03;;
15307;SDS011;7755;52.208;6.964;2022-10-16T11:28:29;6.43;;;3.30;;
15307;SDS011;7755;52.208;6.964;2022-10-16T11:32:50;5.70;;;2.40;;
15307;SDS011;7755;52.208;6.964;2022-10-16T11:37:02;6.63;;;2.30;;
15307;SDS011;7755;52.208;6.964;2022-10-16T11:41:10;5.90;;;2.50;;
15307;SDS011;7755;52.208;6.964;2022-10-16T11:45:23;5.67;;;2.47;;
15307;SDS011;7755;52.208;6.964;2022-10-16T11:49:32;5.77;;;2.70;;
15307;SDS011;7755;52.208;6.964;2022-10-16T11:53:43;4.57;;;2.37;;
15307;SDS011;7755;52.208;6.964;2022-10-16T11:57:49;5.47;;;2.40;;
15307;SDS011;7755;52.208;6.964;2022-10-16T12:01:57;4.63;;;2.30;;
15307;SDS011;7755;52.208;6.964;2022-10-16T12:06:18;4.53;;;2.07;;
15307;SDS011;7755;52.208;6.964;2022-10-16T12:10:31;5.23;;;2.50;;
15307;SDS011;7755;52.208;6.964;2022-10-16T12:14:37;4.13;;;2.17;;
15307;SDS011;7755;52.208;6.964;2022-10-16T12:18:40;6.27;;;2.20;;
15307;SDS011;7755;52.208;6.964;2022-10-16T12:22:48;7.27;;;2.70;;
15307;SDS011;7755;52.208;6.964;2022-10-16T12:26:54;4.33;;;2.33;;
15307;SDS011;7755;52.208;6.964;2022-10-16T12:30:57;6.50;;;3.87;;
15307;SDS011;7755;52.208;6.964;2022-10-16T12:35:01;6.77;;;3.33;;
15307;SDS011;7755;52.208;6.964;2022-10-16T12:39:16;6.00;;;2.60;;
15307;SDS011;7755;52.208;6.964;2022-10-16T12:43:24;6.00;;;2.50;;
15307;SDS011;7755;52.208;6.964;2022-10-16T12:47:38;6.20;;;2.73;;
15307;SDS011;7755;52.208;6.964;2022-10-16T12:51:49;6.03;;;2.20;;
15307;SDS011;7755;52.208;6.964;2022-10-16T12:55:57;6.27;;;3.37;;
15307;SDS011;7755;52.208;6.964;2022-10-16T13:00:08;6.20;;;2.30;;
15307;SDS011;7755;52.208;6.964;2022-10-16T13:13:28;4.60;;;2.50;;
15307;SDS011;7755;52.208;6.964;2022-10-16T13:17:51;3.83;;;2.20;;
15307;SDS011;7755;52.208;6.964;2022-10-16T13:22:02;4.43;;;2.53;;
15307;SDS011;7755;52.208;6.964;2022-10-16T13:26:13;3.70;;;2.30;;
15307;SDS011;7755;52.208;6.964;2022-10-16T13:30:25;6.47;;;2.60;;
15307;SDS011;7755;52.208;6.964;2022-10-16T13:34:29;5.97;;;2.60;;
15307;SDS011;7755;52.208;6.964;2022-10-16T13:38:32;3.87;;;2.20;;
15307;SDS011;7755;52.208;6.964;2022-10-16T13:42:35;5.93;;;2.23;;
15307;SDS011;7755;52.208;6.964;2022-10-16T13:46:38;5.60;;;2.30;;
15307;SDS011;7755;52.208;6.964;2022-10-16T13:50:40;4.47;;;2.47;;
15307;SDS011;7755;52.208;6.964;2022-10-16T13:54:42;5.67;;;2.80;;
15307;SDS011;7755;52.208;6.964;2022-10-16T13:58:44;5.83;;;2.30;;
15307;SDS011;7755;52.208;6.964;2022-10-16T14:02:51;4.63;;;2.43;;
15307;SDS011;7755;52.208;6.964;2022-10-16T14:06:57;5.10;;;2.50;;
15307;SDS011;7755;52.208;6.964;2022-10-16T14:10:59;4.00;;;2.50;;
15307;SDS011;7755;52.208;6.964;2022-10-16T14:15:03;6.20;;;2.40;;
15307;SDS011;7755;52.208;6.964;2022-10-16T14:19:13;4.43;;;2.83;;
15307;SDS011;7755;52.208;6.964;2022-10-16T14:23:21;5.90;;;2.73;;
15307;SDS011;7755;52.208;6.964;2022-10-16T14:27:28;4.37;;;2.73;;
15307;SDS011;7755;52.208;6.964;2022-10-16T14:31:33;3.33;;;2.20;;
15307;SDS011;7755;52.208;6.964;2022-10-16T14:35:38;4.93;;;2.63;;
15307;SDS011;7755;52.208;6.964;2022-10-16T14:39:41;2.87;;;2.30;;
15307;SDS011;7755;52.208;6.964;2022-10-16T14:43:43;7.23;;;2.57;;
15307;SDS011;7755;52.208;6.964;2022-10-16T14:47:47;4.63;;;2.30;;
15307;SDS011;7755;52.208;6.964;2022-10-16T14:51:52;3.47;;;2.40;;
15307;SDS011;7755;52.208;6.964;2022-10-16T14:55:55;3.77;;;2.10;;
15307;SDS011;7755;52.208;6.964;2022-10-16T14:59:57;7.23;;;3.03;;
15307;SDS011;7755;52.208;6.964;2022-10-16T15:03:59;4.13;;;2.00;;
15307;SDS011;7755;52.208;6.964;2022-10-16T15:08:02;5.20;;;2.43;;
15307;SDS011;7755;52.208;6.964;2022-10-16T15:12:05;4.87;;;2.43;;
15307;SDS011;7755;52.208;6.964;2022-10-16T15:16:08;5.07;;;2.40;;
15307;SDS011;7755;52.208;6.964;2022-10-16T15:20:12;3.13;;;2.27;;
15307;SDS011;7755;52.208;6.964;2022-10-16T15:24:15;6.43;;;2.63;;
15307;SDS011;7755;52.208;6.964;2022-10-16T15:28:17;5.00;;;2.63;;
15307;SDS011;7755;52.208;6.964;2022-10-16T15:32:21;7.37;;;2.50;;
15307;SDS011;7755;52.208;6.964;2022-10-16T15:36:26;5.20;;;2.60;;
15307;SDS011;7755;52.208;6.964;2022-10-16T15:40:30;2.37;;;2.17;;
15307;SDS011;7755;52.208;6.964;2022-10-16T15:44:32;2.77;;;2.33;;
15307;SDS011;7755;52.208;6.964;2022-10-16T15:48:34;5.40;;;2.97;;
15307;SDS011;7755;52.208;6.964;2022-10-16T15:52:36;5.50;;;3.20;;
15307;SDS011;7755;52.208;6.964;2022-10-16T15:56:41;4.10;;;3.63;;
15307;SDS011;7755;52.208;6.964;2022-10-16T16:00:43;6.50;;;5.57;;
15307;SDS011;7755;52.208;6.964;2022-10-16T16:04:45;7.60;;;5.30;;
15307;SDS011;7755;52.208;6.964;2022-10-16T16:08:47;3.80;;;3.00;;
15307;SDS011;7755;52.208;6.964;2022-10-16T16:12:51;3.60;;;2.70;;
15307;SDS011;7755;52.208;6.964;2022-10-16T16:16:53;5.00;;;2.50;;
15307;SDS011;7755;52.208;6.964;2022-10-16T16:20:55;4.33;;;2.40;;
15307;SDS011;7755;52.208;6.964;2022-10-16T16:24:58;2.93;;;2.03;;
15307;SDS011;7755;52.208;6.964;2022-10-16T16:29:02;2.53;;;2.33;;
15307;SDS011;7755;52.208;6.964;2022-10-16T16:33:05;3.17;;;2.63;;
15307;SDS011;7755;52.208;6.964;2022-10-16T16:37:06;4.37;;;3.20;;
15307;SDS011;7755;52.208;6.964;2022-10-16T16:41:12;3.50;;;3.20;;
15307;SDS011;7755;52.208;6.964;2022-10-16T16:45:16;5.93;;;4.00;;
15307;SDS011;7755;52.208;6.964;2022-10-16T16:49:18;6.07;;;4.97;;
15307;SDS011;7755;52.208;6.964;2022-10-16T16:53:21;8.20;;;7.40;;
15307;SDS011;7755;52.208;6.964;2022-10-16T16:57:23;15.47;;;11.63;;
15307;SDS011;7755;52.208;6.964;2022-10-16T17:01:26;12.47;;;10.03;;
15307;SDS011;7755;52.208;6.964;2022-10-16T17:05:29;13.13;;;10.00;;
15307;SDS011;7755;52.208;6.964;2022-10-16T17:09:31;10.43;;;7.73;;
15307;SDS011;7755;52.208;6.964;2022-10-16T17:13:34;9.07;;;7.30;;
15307;SDS011;7755;52.208;6.964;2022-10-16T17:17:39;9.17;;;8.37;;
15307;SDS011;7755;52.208;6.964;2022-10-16T17:21:41;13.17;;;9.17;;
15307;SDS011;7755;52.208;6.964;2022-10-16T17:25:49;9.13;;;7.97;;
15307;SDS011;7755;52.208;6.964;2022-10-16T17:29:50;11.93;;;9.07;;
15307;SDS011;7755;52.208;6.964;2022-10-16T17:33:54;11.10;;;10.10;;
15307;SDS011;7755;52.208;6.964;2022-10-16T17:37:56;9.83;;;8.23;;
15307;SDS011;7755;52.208;6.964;2022-10-16T17:42:01;10.17;;;7.73;;
15307;SDS011;7755;52.208;6.964;2022-10-16T17:46:04;9.87;;;6.70;;
15307;SDS011;7755;52.208;6.964;2022-10-16T17:50:07;9.47;;;8.57;;
15307;SDS011;7755;52.208;6.964;2022-10-16T17:54:10;11.17;;;9.07;;
15307;SDS011;7755;52.208;6.964;2022-10-16T17:58:14;10.30;;;9.27;;
15307;SDS011;7755;52.208;6.964;2022-10-16T18:02:16;11.87;;;10.77;;
15307;SDS011;7755;52.208;6.964;2022-10-16T18:06:20;13.97;;;12.27;;
15307;SDS011;7755;52.208;6.964;2022-10-16T18:10:24;15.07;;;13.47;;
15307;SDS011;7755;52.208;6.964;2022-10-16T18:14:26;14.87;;;13.57;;
15307;SDS011;7755;52.208;6.964;2022-10-16T18:18:31;29.57;;;23.70;;
15307;SDS011;7755;52.208;6.964;2022-10-16T18:22:35;39.97;;;32.43;;
15307;SDS011;7755;52.208;6.964;2022-10-16T18:26:37;28.80;;;22.00;;
15307;SDS011;7755;52.208;6.964;2022-10-16T18:30:40;17.20;;;15.40;;
15307;SDS011;7755;52.208;6.964;2022-10-16T18:34:42;12.87;;;11.60;;
15307;SDS011;7755;52.208;6.964;2022-10-16T18:38:45;11.90;;;10.70;;
15307;SDS011;7755;52.208;6.964;2022-10-16T18:42:47;11.90;;;10.83;;
15307;SDS011;7755;52.208;6.964;2022-10-16T18:46:49;13.90;;;12.60;;
15307;SDS011;7755;52.208;6.964;2022-10-16T18:51:05;14.03;;;12.70;;
15307;SDS011;7755;52.208;6.964;2022-10-16T18:55:11;13.67;;;12.03;;
15307;SDS011;7755;52.208;6.964;2022-10-16T18:59:13;12.33;;;10.90;;
15307;SDS011;7755;52.208;6.964;2022-10-16T19:03:15;13.63;;;12.33;;
15307;SDS011;7755;52.208;6.964;2022-10-16T19:07:18;13.20;;;11.90;;
15307;SDS011;7755;52.208;6.964;2022-10-16T19:11:22;17.00;;;15.20;;
15307;SDS011;7755;52.208;6.964;2022-10-16T19:15:25;19.13;;;17.00;;
15307;SDS011;7755;52.208;6.964;2022-10-16T19:19:27;18.47;;;16.13;;
15307;SDS011;7755;52.208;6.964;2022-10-16T19:23:41;25.50;;;22.90;;
15307;SDS011;7755;52.208;6.964;2022-10-16T19:27:44;24.83;;;21.00;;
15307;SDS011;7755;52.208;6.964;2022-10-16T19:31:47;24.27;;;20.73;;
15307;SDS011;7755;52.208;6.964;2022-10-16T19:35:49;19.67;;;16.00;;
15307;SDS011;7755;52.208;6.964;2022-10-16T19:39:51;16.63;;;14.87;;
15307;SDS011;7755;52.208;6.964;2022-10-16T19:43:55;16.70;;;15.00;;
15307;SDS011;7755;52.208;6.964;2022-10-16T19:48:01;19.10;;;17.00;;
15307;SDS011;7755;52.208;6.964;2022-10-16T19:52:03;17.23;;;15.60;;
15307;SDS011;7755;52.208;6.964;2022-10-16T19:56:10;18.00;;;15.97;;
15307;SDS011;7755;52.208;6.964;2022-10-16T20:00:17;21.23;;;18.87;;
15307;SDS011;7755;52.208;6.964;2022-10-16T20:04:20;20.33;;;18.23;;
15307;SDS011;7755;52.208;6.964;2022-10-16T20:08:22;23.07;;;19.83;;
15307;SDS011;7755;52.208;6.964;2022-10-16T20:12:26;19.13;;;16.83;;
15307;SDS011;7755;52.208;6.964;2022-10-16T20:16:29;18.20;;;16.40;;
15307;SDS011;7755;52.208;6.964;2022-10-16T20:20:32;21.87;;;19.23;;
15307;SDS011;7755;52.208;6.964;2022-10-16T20:24:37;19.63;;;17.53;;
15307;SDS011;7755;52.208;6.964;2022-10-16T20:28:40;16.73;;;14.90;;
15307;SDS011;7755;52.208;6.964;2022-10-16T20:32:44;20.37;;;18.10;;
15307;SDS011;7755;52.208;6.964;2022-10-16T20:36:46;20.00;;;16.50;;
15307;SDS011;7755;52.208;6.964;2022-10-16T20:40:50;12.97;;;11.67;;
15307;SDS011;7755;52.208;6.964;2022-10-16T20:44:52;10.77;;;9.77;;
15307;SDS011;7755;52.208;6.964;2022-10-16T20:48:56;10.60;;;9.50;;
15307;SDS011;7755;52.208;6.964;2022-10-16T20:52:59;8.13;;;7.43;;
15307;SDS011;7755;52.208;6.964;2022-10-16T20:57:01;7.63;;;6.97;;
15307;SDS011;7755;52.208;6.964;2022-10-16T21:01:04;9.27;;;8.37;;
15307;SDS011;7755;52.208;6.964;2022-10-16T21:05:08;8.07;;;7.03;;
15307;SDS011;7755;52.208;6.964;2022-10-16T21:09:10;7.33;;;6.70;;
15307;SDS011;7755;52.208;6.964;2022-10-16T21:13:12;7.57;;;6.77;;
15307;SDS011;7755;52.208;6.964;2022-10-16T21:17:15;8.60;;;7.17;;
15307;SDS011;7755;52.208;6.964;2022-10-16T21:21:22;7.13;;;6.57;;
15307;SDS011;7755;52.208;6.964;2022-10-16T21:25:25;7.60;;;6.83;;
15307;SDS011;7755;52.208;6.964;2022-10-16T21:29:27;9.50;;;8.23;;
15307;SDS011;7755;52.208;6.964;2022-10-16T21:33:30;7.03;;;6.53;;
15307;SDS011;7755;52.208;6.964;2022-10-16T21:37:33;9.40;;;8.60;;
15307;SDS011;7755;52.208;6.964;2022-10-16T21:41:35;11.37;;;8.80;;
15307;SDS011;7755;52.208;6.964;2022-10-16T21:45:38;8.73;;;8.03;;
15307;SDS011;7755;52.208;6.964;2022-10-16T21:49:40;8.70;;;8.00;;
15307;SDS011;7755;52.208;6.964;2022-10-16T21:53:43;9.67;;;8.87;;
15307;SDS011;7755;52.208;6.964;2022-10-16T21:57:45;8.27;;;7.53;;
15307;SDS011;7755;52.208;6.964;2022-10-16T22:01:47;7.93;;;7.27;;
15307;SDS011;7755;52.208;6.964;2022-10-16T22:05:49;10.60;;;9.50;;
15307;SDS011;7755;52.208;6.964;2022-10-16T22:09:53;8.50;;;7.67;;
15307;SDS011;7755;52.208;6.964;2022-10-16T22:13:55;7.70;;;7.00;;
15307;SDS011;7755;52.208;6.964;2022-10-16T22:17:57;8.00;;;7.40;;
15307;SDS011;7755;52.208;6.964;2022-10-16T22:21:59;7.87;;;7.27;;
15307;SDS011;7755;52.208;6.964;2022-10-16T22:26:03;7.80;;;7.20;;
15307;SDS011;7755;52.208;6.964;2022-10-16T22:30:08;7.57;;;7.07;;
15307;SDS011;7755;52.208;6.964;2022-10-16T22:34:11;11.77;;;9.90;;
15307;SDS011;7755;52.208;6.964;2022-10-16T22:38:15;9.47;;;8.73;;
15307;SDS011;7755;52.208;6.964;2022-10-16T22:42:18;9.30;;;8.60;;
15307;SDS011;7755;52.208;6.964;2022-10-16T22:46:22;10.57;;;9.67;;
15307;SDS011;7755;52.208;6.964;2022-10-16T22:50:25;9.97;;;9.17;;
15307;SDS011;7755;52.208;6.964;2022-10-16T22:54:27;9.73;;;8.80;;
15307;SDS011;7755;52.208;6.964;2022-10-16T22:58:30;9.97;;;9.07;;
15307;SDS011;7755;52.208;6.964;2022-10-16T23:02:33;8.40;;;7.80;;
15307;SDS011;7755;52.208;6.964;2022-10-16T23:06:35;10.37;;;9.37;;
15307;SDS011;7755;52.208;6.964;2022-10-16T23:10:37;12.00;;;10.93;;
15307;SDS011;7755;52.208;6.964;2022-10-16T23:14:41;9.93;;;9.13;;
15307;SDS011;7755;52.208;6.964;2022-10-16T23:18:43;12.57;;;11.27;;
15307;SDS011;7755;52.208;6.964;2022-10-16T23:22:46;11.90;;;10.90;;
15307;SDS011;7755;52.208;6.964;2022-10-16T23:26:48;10.83;;;9.80;;
15307;SDS011;7755;52.208;6.964;2022-10-16T23:30:52;11.03;;;10.10;;
15307;SDS011;7755;52.208;6.964;2022-10-16T23:34:54;9.07;;;8.33;;
15307;SDS011;7755;52.208;6.964;2022-10-16T23:38:56;10.57;;;9.77;;
15307;SDS011;7755;52.208;6.964;2022-10-16T23:42:59;12.63;;;11.43;;
15307;SDS011;7755;52.208;6.964;2022-10-16T23:47:02;12.00;;;11.10;;
15307;SDS011;7755;52.208;6.964;2022-10-16T23:51:05;13.03;;;11.93;;
15307;SDS011;7755;52.208;6.964;2022-10-16T23:55:08;11.23;;;10.13;;
15307;SDS011;7755;52.208;6.964;2022-10-16T23:59:09;11.13;;;10.23;;
